Terminal Aerodrome Forecast
Issued by NWS

Home | Current Version | Previous Version | Text Only | Print | Product List | Glossary Off
Versions: 1 2 3 4 5 6 7 8 9 10 11 12 13 14 15 16 17

000
FTUS43 KIWX 011800 AAA
TAFSBN
TAF AMD
KSBN 011852Z 0119/0218 VRB03KT 3SM -SN BR BKN020 OVC035
      TEMPO 0119/0120 3/4SM -SN BR OVC020
     FM012000 26008KT P6SM OVC025
     FM020200 26008KT P6SM SCT020
     FM020700 28008KT P6SM BKN250=

USA.gov is the U.S. government's official web portal to all federal, state and local government web resources and services.